Terminal Aerodrome Forecast
Issued by NWS

Home | Current Version | Previous Version | Text Only | Print | Product List | Glossary On
Versions: 1 2 3 4 5 6 7 8 9 10 11 12 13
561
FTUS43 KMQT 280530
TAFSAW
TAF
KSAW 280530Z 2806/2906 35004KT P6SM BKN100
      TEMPO 2806/2809 5SM BR
     FM280900 36005KT 5SM BR SCT050
     FM281300 36005KT P6SM BKN050
     FM282200 01007KT P6SM SCT120=

USA.gov is the U.S. government's official web portal to all federal, state and local government web resources and services.